sensor_id;sensor_type;location;lat;lon;timestamp;pressure;altitude;pressure_sealevel;temperature;humidity
65716;BME280;63484;52.054;8.518;2023-07-20T00:02:49;100343.56;;;16.86;97.95
65716;BME280;63484;52.054;8.518;2023-07-20T00:07:54;100338.13;;;16.78;98.20
65716;BME280;63484;52.054;8.518;2023-07-20T00:12:59;100337.56;;;16.65;98.64
65716;BME280;63484;52.054;8.518;2023-07-20T00:18:03;100339.38;;;16.54;99.28
65716;BME280;63484;52.054;8.518;2023-07-20T00:23:06;100337.28;;;16.48;100.00
65716;BME280;63484;52.054;8.518;2023-07-20T00:28:07;100342.00;;;16.45;100.00
65716;BME280;63484;52.054;8.518;2023-07-20T00:33:11;100337.78;;;16.42;100.00
65716;BME280;63484;52.054;8.518;2023-07-20T00:38:14;100340.59;;;16.50;100.00
65716;BME280;63484;52.054;8.518;2023-07-20T00:43:16;100338.09;;;16.58;100.00
65716;BME280;63484;52.054;8.518;2023-07-20T00:48:17;100335.84;;;16.63;100.00
65716;BME280;63484;52.054;8.518;2023-07-20T00:53:21;100329.16;;;16.69;100.00
65716;BME280;63484;52.054;8.518;2023-07-20T00:58:22;100323.44;;;16.74;100.00
65716;BME280;63484;52.054;8.518;2023-07-20T01:03:24;100322.88;;;16.70;100.00
65716;BME280;63484;52.054;8.518;2023-07-20T01:08:29;100318.41;;;16.61;100.00
65716;BME280;63484;52.054;8.518;2023-07-20T01:13:33;100323.72;;;16.51;100.00
65716;BME280;63484;52.054;8.518;2023-07-20T01:18:35;100321.88;;;16.52;100.00
65716;BME280;63484;52.054;8.518;2023-07-20T01:34:26;100307.94;;;16.50;100.00
65716;BME280;63484;52.054;8.518;2023-07-20T01:39:28;100312.41;;;16.49;100.00
65716;BME280;63484;52.054;8.518;2023-07-20T01:44:29;100321.06;;;16.51;100.00
65716;BME280;63484;52.054;8.518;2023-07-20T01:49:32;100313.53;;;16.56;100.00
65716;BME280;63484;52.054;8.518;2023-07-20T01:54:34;100299.25;;;16.57;100.00
65716;BME280;63484;52.054;8.518;2023-07-20T01:59:35;100302.47;;;16.51;100.00
65716;BME280;63484;52.054;8.518;2023-07-20T02:04:38;100308.06;;;16.48;100.00
65716;BME280;63484;52.054;8.518;2023-07-20T02:09:40;100308.00;;;16.39;100.00
65716;BME280;63484;52.054;8.518;2023-07-20T02:14:41;100312.38;;;16.40;100.00
65716;BME280;63484;52.054;8.518;2023-07-20T02:19:49;100315.91;;;16.50;100.00
65716;BME280;63484;52.054;8.518;2023-07-20T02:24:51;100315.47;;;16.54;100.00
65716;BME280;63484;52.054;8.518;2023-07-20T02:29:52;100309.16;;;16.55;100.00
65716;BME280;63484;52.054;8.518;2023-07-20T02:34:58;100303.31;;;16.52;100.00
65716;BME280;63484;52.054;8.518;2023-07-20T02:39:59;100298.41;;;16.47;100.00
65716;BME280;63484;52.054;8.518;2023-07-20T02:45:01;100305.34;;;16.39;100.00
65716;BME280;63484;52.054;8.518;2023-07-20T02:50:07;100302.56;;;16.31;100.00
65716;BME280;63484;52.054;8.518;2023-07-20T02:55:09;100312.22;;;16.22;100.00
65716;BME280;63484;52.054;8.518;2023-07-20T03:00:13;100320.00;;;16.14;100.00
65716;BME280;63484;52.054;8.518;2023-07-20T03:05:18;100322.91;;;16.11;100.00
65716;BME280;63484;52.054;8.518;2023-07-20T03:10:19;100327.13;;;16.14;100.00
65716;BME280;63484;52.054;8.518;2023-07-20T03:15:21;100330.34;;;16.17;100.00
65716;BME280;63484;52.054;8.518;2023-07-20T03:20:23;100323.63;;;16.23;100.00
65716;BME280;63484;52.054;8.518;2023-07-20T03:25:28;100326.84;;;16.26;100.00
65716;BME280;63484;52.054;8.518;2023-07-20T03:30:30;100333.59;;;16.30;100.00
65716;BME280;63484;52.054;8.518;2023-07-20T03:35:33;100347.94;;;16.18;100.00
65716;BME280;63484;52.054;8.518;2023-07-20T03:40:34;100343.31;;;16.01;100.00
65716;BME280;63484;52.054;8.518;2023-07-20T03:45:36;100345.22;;;15.90;100.00
65716;BME280;63484;52.054;8.518;2023-07-20T03:50:39;100342.50;;;15.71;100.00
65716;BME280;63484;52.054;8.518;2023-07-20T03:55:41;100360.56;;;15.56;100.00
65716;BME280;63484;52.054;8.518;2023-07-20T04:00:43;100356.81;;;15.38;100.00
65716;BME280;63484;52.054;8.518;2023-07-20T04:05:46;100361.34;;;15.26;100.00
65716;BME280;63484;52.054;8.518;2023-07-20T04:10:48;100364.94;;;15.25;100.00
65716;BME280;63484;52.054;8.518;2023-07-20T04:15:49;100366.06;;;15.23;100.00
65716;BME280;63484;52.054;8.518;2023-07-20T04:20:52;100366.81;;;15.35;100.00
65716;BME280;63484;52.054;8.518;2023-07-20T04:25:54;100368.97;;;15.20;100.00
65716;BME280;63484;52.054;8.518;2023-07-20T04:31:08;100381.88;;;15.13;100.00
65716;BME280;63484;52.054;8.518;2023-07-20T04:36:12;100372.38;;;15.11;100.00
65716;BME280;63484;52.054;8.518;2023-07-20T04:41:16;100390.28;;;15.18;100.00
65716;BME280;63484;52.054;8.518;2023-07-20T04:46:20;100392.81;;;15.20;100.00
65716;BME280;63484;52.054;8.518;2023-07-20T04:51:23;100395.72;;;15.17;100.00
65716;BME280;63484;52.054;8.518;2023-07-20T04:56:28;100398.28;;;15.28;100.00
65716;BME280;63484;52.054;8.518;2023-07-20T05:01:31;100397.22;;;15.51;100.00
65716;BME280;63484;52.054;8.518;2023-07-20T05:06:34;100398.94;;;15.62;100.00
65716;BME280;63484;52.054;8.518;2023-07-20T05:11:36;100397.31;;;15.70;100.00
65716;BME280;63484;52.054;8.518;2023-07-20T05:16:37;100406.84;;;15.82;100.00
65716;BME280;63484;52.054;8.518;2023-07-20T05:21:41;100408.63;;;16.02;100.00
65716;BME280;63484;52.054;8.518;2023-07-20T05:26:45;100413.91;;;16.02;100.00
65716;BME280;63484;52.054;8.518;2023-07-20T05:31:46;100411.28;;;16.02;100.00
65716;BME280;63484;52.054;8.518;2023-07-20T05:36:49;100421.16;;;16.00;99.59
65716;BME280;63484;52.054;8.518;2023-07-20T05:41:51;100416.88;;;16.09;99.04
65716;BME280;63484;52.054;8.518;2023-07-20T05:46:53;100427.97;;;16.23;98.58
65716;BME280;63484;52.054;8.518;2023-07-20T05:51:58;100427.09;;;16.13;96.54
65716;BME280;63484;52.054;8.518;2023-07-20T05:57:01;100433.44;;;16.31;96.61
65716;BME280;63484;52.054;8.518;2023-07-20T06:02:02;100435.38;;;16.59;93.65
65716;BME280;63484;52.054;8.518;2023-07-20T06:07:05;100439.69;;;16.60;93.16
65716;BME280;63484;52.054;8.518;2023-07-20T06:12:10;100448.94;;;17.14;91.55
65716;BME280;63484;52.054;8.518;2023-07-20T06:17:12;100448.97;;;17.52;87.28
65716;BME280;63484;52.054;8.518;2023-07-20T06:22:15;100456.16;;;18.79;83.23
65716;BME280;63484;52.054;8.518;2023-07-20T06:27:16;100446.72;;;18.67;80.49
65716;BME280;63484;52.054;8.518;2023-07-20T06:32:17;100459.72;;;18.06;81.97
65716;BME280;63484;52.054;8.518;2023-07-20T06:37:20;100453.44;;;18.07;79.32
65716;BME280;63484;52.054;8.518;2023-07-20T06:42:22;100459.19;;;18.39;78.17
65716;BME280;63484;52.054;8.518;2023-07-20T06:47:23;100459.25;;;18.20;79.71
65716;BME280;63484;52.054;8.518;2023-07-20T06:52:26;100460.16;;;19.96;70.13
65716;BME280;63484;52.054;8.518;2023-07-20T06:57:28;100466.44;;;20.46;68.45
65716;BME280;63484;52.054;8.518;2023-07-20T07:02:29;100473.34;;;19.72;68.62
65716;BME280;63484;52.054;8.518;2023-07-20T07:07:32;100472.91;;;24.19;53.54
65716;BME280;63484;52.054;8.518;2023-07-20T07:12:34;100482.03;;;26.37;47.30
65716;BME280;63484;52.054;8.518;2023-07-20T07:17:37;100480.34;;;22.59;56.39
65716;BME280;63484;52.054;8.518;2023-07-20T07:22:40;100473.56;;;19.79;66.25
65716;BME280;63484;52.054;8.518;2023-07-20T07:27:45;100499.44;;;26.75;44.41
65716;BME280;63484;52.054;8.518;2023-07-20T07:32:47;100500.09;;;25.87;46.31
65716;BME280;63484;52.054;8.518;2023-07-20T07:37:49;100509.53;;;27.00;41.67
65716;BME280;63484;52.054;8.518;2023-07-20T07:42:51;100522.34;;;29.76;37.11
65716;BME280;63484;52.054;8.518;2023-07-20T07:47:52;100506.34;;;25.25;44.59
65716;BME280;63484;52.054;8.518;2023-07-20T07:52:55;100503.47;;;22.52;51.74
65716;BME280;63484;52.054;8.518;2023-07-20T07:57:59;100519.84;;;25.46;45.70
65716;BME280;63484;52.054;8.518;2023-07-20T08:03:00;100530.09;;;28.14;38.44
65716;BME280;63484;52.054;8.518;2023-07-20T08:08:03;100540.03;;;29.47;36.20
65716;BME280;63484;52.054;8.518;2023-07-20T08:13:05;100524.28;;;26.30;41.94
65716;BME280;63484;52.054;8.518;2023-07-20T08:18:06;100521.53;;;23.35;49.35
65716;BME280;63484;52.054;8.518;2023-07-20T08:23:10;100516.50;;;21.28;53.80
65716;BME280;63484;52.054;8.518;2023-07-20T08:28:11;100530.50;;;25.75;41.84
65716;BME280;63484;52.054;8.518;2023-07-20T08:33:13;100535.69;;;25.76;39.70
65716;BME280;63484;52.054;8.518;2023-07-20T08:38:16;100537.41;;;26.39;38.13
65716;BME280;63484;52.054;8.518;2023-07-20T08:43:18;100535.69;;;24.84;40.43
65716;BME280;63484;52.054;8.518;2023-07-20T08:48:19;100524.84;;;22.84;46.94
65716;BME280;63484;52.054;8.518;2023-07-20T08:53:23;100520.31;;;21.17;53.57
65716;BME280;63484;52.054;8.518;2023-07-20T08:58:24;100526.50;;;21.26;53.31
65716;BME280;63484;52.054;8.518;2023-07-20T09:03:26;100518.28;;;22.40;51.37
65716;BME280;63484;52.054;8.518;2023-07-20T09:08:29;100523.94;;;22.45;46.52
65716;BME280;63484;52.054;8.518;2023-07-20T09:13:31;100524.88;;;22.76;47.24
65716;BME280;63484;52.054;8.518;2023-07-20T09:18:33;100509.81;;;22.12;50.33
65716;BME280;63484;52.054;8.518;2023-07-20T09:23:37;100520.44;;;21.00;50.53
65716;BME280;63484;52.054;8.518;2023-07-20T09:28:41;100526.25;;;21.77;47.40
65716;BME280;63484;52.054;8.518;2023-07-20T09:33:44;100530.78;;;21.76;49.01
65716;BME280;63484;52.054;8.518;2023-07-20T09:38:47;100538.09;;;21.66;46.03
65716;BME280;63484;52.054;8.518;2023-07-20T09:43:48;100531.47;;;22.57;45.80
65716;BME280;63484;52.054;8.518;2023-07-20T09:48:53;100538.09;;;21.42;50.04
65716;BME280;63484;52.054;8.518;2023-07-20T09:53:56;100533.25;;;21.70;48.00
65716;BME280;63484;52.054;8.518;2023-07-20T09:58:58;100531.34;;;22.35;42.69
65716;BME280;63484;52.054;8.518;2023-07-20T10:04:01;100535.53;;;22.29;43.87
65716;BME280;63484;52.054;8.518;2023-07-20T10:09:06;100525.59;;;22.62;45.73
65716;BME280;63484;52.054;8.518;2023-07-20T10:14:07;100535.25;;;22.79;41.84
65716;BME280;63484;52.054;8.518;2023-07-20T10:19:12;100530.50;;;22.89;40.47
65716;BME280;63484;52.054;8.518;2023-07-20T10:24:16;100533.06;;;23.13;41.08
65716;BME280;63484;52.054;8.518;2023-07-20T10:29:18;100527.34;;;23.16;42.58
65716;BME280;63484;52.054;8.518;2023-07-20T10:34:21;100527.31;;;23.47;41.60
65716;BME280;63484;52.054;8.518;2023-07-20T10:39:24;100524.63;;;23.47;41.11
65716;BME280;63484;52.054;8.518;2023-07-20T10:44:27;100519.66;;;22.82;42.19
65716;BME280;63484;52.054;8.518;2023-07-20T10:49:29;100512.28;;;22.22;43.36
65716;BME280;63484;52.054;8.518;2023-07-20T10:54:35;100520.88;;;23.25;43.74
65716;BME280;63484;52.054;8.518;2023-07-20T10:59:48;100517.81;;;24.18;39.56
65716;BME280;63484;52.054;8.518;2023-07-20T11:04:50;100523.75;;;24.43;38.99
65716;BME280;63484;52.054;8.518;2023-07-20T11:09:53;100521.13;;;23.83;39.80
65716;BME280;63484;52.054;8.518;2023-07-20T11:15:13;100513.38;;;23.20;41.51
65716;BME280;63484;52.054;8.518;2023-07-20T11:20:15;100518.06;;;22.49;40.59
65716;BME280;63484;52.054;8.518;2023-07-20T11:25:18;100507.34;;;21.94;46.95
65716;BME280;63484;52.054;8.518;2023-07-20T11:30:20;100505.66;;;21.85;44.10
65716;BME280;63484;52.054;8.518;2023-07-20T11:35:21;100505.97;;;21.42;46.26
65716;BME280;63484;52.054;8.518;2023-07-20T11:40:24;100500.31;;;21.77;44.85
65716;BME280;63484;52.054;8.518;2023-07-20T11:45:26;100496.78;;;22.56;43.42
65716;BME280;63484;52.054;8.518;2023-07-20T11:50:38;100491.56;;;22.08;45.09
65716;BME280;63484;52.054;8.518;2023-07-20T11:55:40;100484.72;;;21.97;46.54
65716;BME280;63484;52.054;8.518;2023-07-20T12:00:44;100490.41;;;22.87;43.66
65716;BME280;63484;52.054;8.518;2023-07-20T12:05:46;100487.53;;;23.27;39.79
65716;BME280;63484;52.054;8.518;2023-07-20T12:10:49;100474.06;;;23.36;40.41
65716;BME280;63484;52.054;8.518;2023-07-20T12:15:52;100470.69;;;23.56;40.17
65716;BME280;63484;52.054;8.518;2023-07-20T12:20:58;100475.22;;;24.66;38.93
65716;BME280;63484;52.054;8.518;2023-07-20T12:26:03;100474.75;;;24.62;37.67
65716;BME280;63484;52.054;8.518;2023-07-20T12:31:07;100477.28;;;24.49;36.33
65716;BME280;63484;52.054;8.518;2023-07-20T12:36:09;100473.78;;;24.99;35.29
65716;BME280;63484;52.054;8.518;2023-07-20T12:41:13;100461.91;;;25.50;38.71
65716;BME280;63484;52.054;8.518;2023-07-20T12:46:14;100469.00;;;25.36;34.72
65716;BME280;63484;52.054;8.518;2023-07-20T12:51:16;100465.56;;;24.56;36.57
65716;BME280;63484;52.054;8.518;2023-07-20T12:56:20;100455.97;;;24.04;38.11
65716;BME280;63484;52.054;8.518;2023-07-20T13:01:21;100453.56;;;24.23;38.75
65716;BME280;63484;52.054;8.518;2023-07-20T13:06:24;100450.13;;;24.00;36.82
65716;BME280;63484;52.054;8.518;2023-07-20T13:11:27;100444.63;;;23.79;36.82
65716;BME280;63484;52.054;8.518;2023-07-20T13:16:31;100446.31;;;24.38;37.89
65716;BME280;63484;52.054;8.518;2023-07-20T13:21:34;100442.00;;;25.09;36.30
65716;BME280;63484;52.054;8.518;2023-07-20T13:26:37;100444.34;;;24.97;36.35
65716;BME280;63484;52.054;8.518;2023-07-20T13:31:38;100448.53;;;24.20;36.12
65716;BME280;63484;52.054;8.518;2023-07-20T13:36:40;100435.19;;;24.41;34.79
65716;BME280;63484;52.054;8.518;2023-07-20T13:41:43;100442.78;;;24.52;34.25
65716;BME280;63484;52.054;8.518;2023-07-20T13:46:45;100442.38;;;25.06;35.67
65716;BME280;63484;52.054;8.518;2023-07-20T13:51:46;100439.47;;;24.86;35.26
65716;BME280;63484;52.054;8.518;2023-07-20T13:56:49;100435.00;;;24.72;36.05
65716;BME280;63484;52.054;8.518;2023-07-20T14:01:51;100435.72;;;24.51;37.32
65716;BME280;63484;52.054;8.518;2023-07-20T14:06:53;100435.69;;;23.64;41.07
65716;BME280;63484;52.054;8.518;2023-07-20T14:11:55;100429.88;;;23.15;41.43
65716;BME280;63484;52.054;8.518;2023-07-20T14:16:59;100434.84;;;23.64;40.42
65716;BME280;63484;52.054;8.518;2023-07-20T14:22:01;100434.66;;;24.02;39.19
65716;BME280;63484;52.054;8.518;2023-07-20T14:27:07;100446.22;;;23.06;41.76
65716;BME280;63484;52.054;8.518;2023-07-20T14:32:09;100444.19;;;22.55;43.02
65716;BME280;63484;52.054;8.518;2023-07-20T14:37:11;100448.53;;;22.56;44.62
65716;BME280;63484;52.054;8.518;2023-07-20T14:42:14;100443.09;;;22.72;45.17
65716;BME280;63484;52.054;8.518;2023-07-20T14:47:16;100443.63;;;22.67;44.57
65716;BME280;63484;52.054;8.518;2023-07-20T14:52:18;100435.38;;;22.38;45.72
65716;BME280;63484;52.054;8.518;2023-07-20T14:57:20;100431.09;;;22.13;45.86
65716;BME280;63484;52.054;8.518;2023-07-20T15:02:23;100429.88;;;22.32;44.84
65716;BME280;63484;52.054;8.518;2023-07-20T15:07:25;100423.34;;;22.65;44.98
65716;BME280;63484;52.054;8.518;2023-07-20T15:12:28;100420.09;;;22.77;43.85
65716;BME280;63484;52.054;8.518;2023-07-20T15:17:30;100416.53;;;23.30;42.90
65716;BME280;63484;52.054;8.518;2023-07-20T15:22:32;100419.28;;;22.99;43.02
65716;BME280;63484;52.054;8.518;2023-07-20T15:27:35;100414.03;;;23.28;42.11
65716;BME280;63484;52.054;8.518;2023-07-20T15:32:36;100413.72;;;22.78;43.19
65716;BME280;63484;52.054;8.518;2023-07-20T15:37:38;100413.84;;;22.85;42.80
65716;BME280;63484;52.054;8.518;2023-07-20T15:42:41;100394.72;;;22.88;43.30
65716;BME280;63484;52.054;8.518;2023-07-20T15:47:42;100399.47;;;23.00;42.66
65716;BME280;63484;52.054;8.518;2023-07-20T15:52:45;100391.66;;;23.13;42.52
65716;BME280;63484;52.054;8.518;2023-07-20T15:57:49;100385.97;;;23.16;44.30
65716;BME280;63484;52.054;8.518;2023-07-20T16:02:50;100388.59;;;23.02;43.19
65716;BME280;63484;52.054;8.518;2023-07-20T16:07:52;100383.91;;;22.96;43.83
65716;BME280;63484;52.054;8.518;2023-07-20T16:12:54;100384.03;;;23.02;43.23
65716;BME280;63484;52.054;8.518;2023-07-20T16:17:56;100382.50;;;23.08;41.54
65716;BME280;63484;52.054;8.518;2023-07-20T16:22:58;100376.28;;;22.85;42.07
65716;BME280;63484;52.054;8.518;2023-07-20T16:28:03;100373.84;;;22.53;41.50
65716;BME280;63484;52.054;8.518;2023-07-20T16:33:06;100368.44;;;21.75;43.56
65716;BME280;63484;52.054;8.518;2023-07-20T16:38:07;100368.44;;;21.75;43.69
65716;BME280;63484;52.054;8.518;2023-07-20T16:43:10;100363.38;;;21.88;43.05
65716;BME280;63484;52.054;8.518;2023-07-20T16:48:11;100361.06;;;21.69;44.15
65716;BME280;63484;52.054;8.518;2023-07-20T16:53:15;100360.13;;;21.54;45.63
65716;BME280;63484;52.054;8.518;2023-07-20T16:58:18;100360.63;;;21.42;44.75
65716;BME280;63484;52.054;8.518;2023-07-20T17:03:20;100354.66;;;21.16;44.05
65716;BME280;63484;52.054;8.518;2023-07-20T17:08:21;100352.16;;;20.98;44.64
65716;BME280;63484;52.054;8.518;2023-07-20T17:13:24;100348.47;;;21.15;44.11
65716;BME280;63484;52.054;8.518;2023-07-20T17:18:26;100345.78;;;21.31;45.18
65716;BME280;63484;52.054;8.518;2023-07-20T17:23:27;100347.94;;;21.44;45.11
65716;BME280;63484;52.054;8.518;2023-07-20T17:28:32;100348.72;;;21.76;42.77
65716;BME280;63484;52.054;8.518;2023-07-20T17:33:34;100336.63;;;21.80;44.07
65716;BME280;63484;52.054;8.518;2023-07-20T17:38:35;100333.06;;;21.96;41.84
65716;BME280;63484;52.054;8.518;2023-07-20T17:43:38;100326.88;;;21.95;43.41
65716;BME280;63484;52.054;8.518;2023-07-20T17:48:39;100333.38;;;21.46;43.14
65716;BME280;63484;52.054;8.518;2023-07-20T17:53:41;100325.91;;;21.02;43.81
65716;BME280;63484;52.054;8.518;2023-07-20T17:58:44;100328.25;;;20.97;42.66
65716;BME280;63484;52.054;8.518;2023-07-20T18:03:45;100331.56;;;20.67;45.01
65716;BME280;63484;52.054;8.518;2023-07-20T18:08:47;100328.03;;;20.58;45.92
65716;BME280;63484;52.054;8.518;2023-07-20T18:13:50;100318.19;;;20.58;45.81
65716;BME280;63484;52.054;8.518;2023-07-20T18:18:51;100315.03;;;20.55;46.38
65716;BME280;63484;52.054;8.518;2023-07-20T18:23:53;100303.47;;;20.46;46.32
65716;BME280;63484;52.054;8.518;2023-07-20T18:28:56;100301.31;;;20.42;46.22
65716;BME280;63484;52.054;8.518;2023-07-20T18:33:57;100298.97;;;20.39;47.69
65716;BME280;63484;52.054;8.518;2023-07-20T18:39:00;100297.94;;;20.32;46.73
65716;BME280;63484;52.054;8.518;2023-07-20T18:44:02;100300.25;;;20.19;47.52
65716;BME280;63484;52.054;8.518;2023-07-20T18:49:04;100293.38;;;20.08;48.28
65716;BME280;63484;52.054;8.518;2023-07-20T18:54:06;100284.81;;;19.89;48.52
65716;BME280;63484;52.054;8.518;2023-07-20T18:59:09;100300.22;;;19.69;49.41
65716;BME280;63484;52.054;8.518;2023-07-20T19:04:10;100298.47;;;19.52;50.71
65716;BME280;63484;52.054;8.518;2023-07-20T19:09:12;100306.31;;;19.28;52.05
65716;BME280;63484;52.054;8.518;2023-07-20T19:14:15;100301.97;;;19.01;53.42
65716;BME280;63484;52.054;8.518;2023-07-20T19:19:16;100296.28;;;18.79;54.58
65716;BME280;63484;52.054;8.518;2023-07-20T19:24:20;100293.50;;;18.63;54.64
65716;BME280;63484;52.054;8.518;2023-07-20T19:29:23;100297.31;;;18.60;55.39
65716;BME280;63484;52.054;8.518;2023-07-20T19:34:25;100297.63;;;18.57;57.26
65716;BME280;63484;52.054;8.518;2023-07-20T19:39:26;100309.25;;;18.56;57.13
65716;BME280;63484;52.054;8.518;2023-07-20T19:44:29;100317.22;;;18.56;58.07
65716;BME280;63484;52.054;8.518;2023-07-20T19:49:31;100324.19;;;18.49;58.84
65716;BME280;63484;52.054;8.518;2023-07-20T19:54:32;100323.75;;;18.27;61.50
65716;BME280;63484;52.054;8.518;2023-07-20T19:59:35;100330.31;;;18.05;62.75
65716;BME280;63484;52.054;8.518;2023-07-20T20:04:37;100328.34;;;17.80;64.64
65716;BME280;63484;52.054;8.518;2023-07-20T20:09:40;100331.63;;;17.64;66.77
65716;BME280;63484;52.054;8.518;2023-07-20T20:14:43;100337.72;;;17.47;67.70
65716;BME280;63484;52.054;8.518;2023-07-20T20:19:45;100337.03;;;17.36;69.34
65716;BME280;63484;52.054;8.518;2023-07-20T20:24:49;100326.56;;;17.34;70.91
65716;BME280;63484;52.054;8.518;2023-07-20T20:29:53;100327.66;;;17.32;72.01
65716;BME280;63484;52.054;8.518;2023-07-20T20:34:56;100319.28;;;17.27;71.98
65716;BME280;63484;52.054;8.518;2023-07-20T20:40:00;100325.16;;;17.30;71.71
65716;BME280;63484;52.054;8.518;2023-07-20T20:45:03;100331.47;;;17.29;71.85
65716;BME280;63484;52.054;8.518;2023-07-20T20:50:05;100322.63;;;17.29;72.93
65716;BME280;63484;52.054;8.518;2023-07-20T20:55:07;100320.97;;;17.28;73.03
65716;BME280;63484;52.054;8.518;2023-07-20T21:00:11;100325.59;;;17.26;73.80
65716;BME280;63484;52.054;8.518;2023-07-20T21:05:12;100320.41;;;17.24;75.90
65716;BME280;63484;52.054;8.518;2023-07-20T21:10:14;100321.00;;;17.18;72.42
65716;BME280;63484;52.054;8.518;2023-07-20T21:15:17;100316.25;;;17.12;73.55
65716;BME280;63484;52.054;8.518;2023-07-20T21:20:19;100315.41;;;17.12;73.26
65716;BME280;63484;52.054;8.518;2023-07-20T21:25:21;100307.84;;;17.07;73.85
65716;BME280;63484;52.054;8.518;2023-07-20T21:30:23;100305.63;;;17.03;73.59
65716;BME280;63484;52.054;8.518;2023-07-20T21:35:28;100303.69;;;16.95;75.81
65716;BME280;63484;52.054;8.518;2023-07-20T21:40:30;100299.22;;;16.96;76.18
65716;BME280;63484;52.054;8.518;2023-07-20T21:45:35;100297.69;;;16.93;75.92
65716;BME280;63484;52.054;8.518;2023-07-20T21:50:38;100303.69;;;16.95;76.80
65716;BME280;63484;52.054;8.518;2023-07-20T21:55:39;100308.88;;;16.97;76.88
65716;BME280;63484;52.054;8.518;2023-07-20T22:00:42;100302.84;;;16.95;77.06
65716;BME280;63484;52.054;8.518;2023-07-20T22:05:44;100299.50;;;16.93;77.81
65716;BME280;63484;52.054;8.518;2023-07-20T22:10:46;100293.09;;;16.86;78.01
65716;BME280;63484;52.054;8.518;2023-07-20T22:15:49;100286.38;;;16.82;77.49
65716;BME280;63484;52.054;8.518;2023-07-20T22:20:51;100284.97;;;16.87;77.95
65716;BME280;63484;52.054;8.518;2023-07-20T22:25:53;100288.59;;;16.96;76.79
65716;BME280;63484;52.054;8.518;2023-07-20T22:30:57;100288.19;;;17.00;75.50
65716;BME280;63484;52.054;8.518;2023-07-20T22:35:59;100282.56;;;17.03;74.83
65716;BME280;63484;52.054;8.518;2023-07-20T22:41:00;100272.38;;;16.99;76.67
65716;BME280;63484;52.054;8.518;2023-07-20T22:46:03;100264.69;;;16.96;77.33
65716;BME280;63484;52.054;8.518;2023-07-20T22:51:05;100266.38;;;16.97;74.11
65716;BME280;63484;52.054;8.518;2023-07-20T22:56:06;100267.63;;;16.93;75.41
65716;BME280;63484;52.054;8.518;2023-07-20T23:01:09;100271.97;;;16.94;74.94
65716;BME280;63484;52.054;8.518;2023-07-20T23:06:11;100262.72;;;16.98;77.13
65716;BME280;63484;52.054;8.518;2023-07-20T23:11:12;100266.66;;;16.94;77.45
65716;BME280;63484;52.054;8.518;2023-07-20T23:16:15;100260.66;;;16.92;79.74
65716;BME280;63484;52.054;8.518;2023-07-20T23:21:17;100258.56;;;16.86;81.20
65716;BME280;63484;52.054;8.518;2023-07-20T23:26:18;100259.97;;;16.80;83.05
65716;BME280;63484;52.054;8.518;2023-07-20T23:31:21;100261.94;;;16.69;84.14
65716;BME280;63484;52.054;8.518;2023-07-20T23:36:24;100258.19;;;16.62;84.84
65716;BME280;63484;52.054;8.518;2023-07-20T23:41:25;100258.44;;;16.58;84.39
65716;BME280;63484;52.054;8.518;2023-07-20T23:46:28;100251.06;;;16.52;83.56
65716;BME280;63484;52.054;8.518;2023-07-20T23:51:30;100252.59;;;16.45;84.41
65716;BME280;63484;52.054;8.518;2023-07-20T23:56:32;100250.34;;;16.50;84.19
